메인 페이지
METAR-TAF:

METAR-TAF

공항 :

매디슨, 위스콘신, 미국

위도: 43-08-26N, 경도: 089-20-43W, 고도: 262m

현재 날씨관측

예보는 23분 전, 13:53시(UTC)에 발표되었습니다.
4kt
온도 12°C
습도 82%
기압 1008 hPa
시정: 3.2km
고도 700ft 상공 구름 보통
고도 1500ft 상공 흐림
박무

METAR: KMSN 071353Z 18004KT 2SM BR SCT007 OVC015 12/09 A2978 RMK AO2 SFC VIS 4 SLP085 T01170094 $

시각: 09:16 (14:16 UTC)

예보

예보는 2 시간 43분 전, 11:33시(UTC)에 발표되었습니다.
예보 대상 시간: 07일 12시부터 08일 12시까지 (UTC)
여러 방향의 바람 3kt
시정: 4.8km
고도 1200ft 상공 흐림
박무
07일 1400시부터 (UTC)
4kt
시정: 9.7km
고도 800ft 상공 구름 많음
박무
07일 1700시부터 (UTC)
남남서11kt, 순간 최대 풍속 20kt
시정: 10km
고도 2800ft 상공 구름 많음
07일 2000시부터 (UTC)
서남서12kt, 순간 최대 풍속 21kt
시정: 10km
고도 2500ft 상공 구름 많음, 적란운.
시계 내 뇌우
08일 0000시부터 (UTC)
서북서9kt
시정: 10km
고도 6000ft 상공 구름 많음
08일 0500시부터 (UTC)
서북서4kt
시정: 10km
고도 20000ft 상공 구름 조금

TAF: KMSN 071133Z 0712/0812 VRB03KT 3SM BR OVC012 FM071400 18004KT 6SM BR BKN008 FM071700 21011G20KT P6SM BKN028 FM072000 24012G21KT P6SM VCTS BKN025CB FM080000 30009KT P6SM BKN060 FM080500 30004KT P6SM FEW200

4,000개 이상의 공항 관측 자료 및 예보 (METAR 및 TAF 보고).

지도상에서 검색 가능한 기상관측소가 노란 점과 빨간 점으로 표시되어 있습니다.

기상관측소 명을 보려면 표시 위로 마우스를 이동하세요.

날씨 관측과 예보를 보려면 클릭하세요.

지도 변경 : 확대하려면 엑스 표시가 있는 녹색 버튼, 축소하려면 빼기 표시가 있는 녹색 버튼, 다음 페이지의 지도를 보려면 녹색 화살표를 클릭하세요.


METAR-TAF: